Terminal Aerodrome Forecast
Issued by NWS Twin Cities, MN

Home | Current Version | Previous Version | Graphics & Text | Print | Product List | Glossary On
Versions: 1 2 3 4 5 6 7 8 9 10 11 12 13 14 15 16 17
000
FTUS43 KMPX 300520
TAFSTC
TAF
KSTC 300520Z 3006/3106 23002KT P6SM SKC
      TEMPO 3009/3012 5SM BR
     FM301700 19006KT P6SM FEW250
     FM302100 16008KT P6SM SCT250
      TEMPO 3104/3106 4SM -TSRA OVC050CB=

USA.gov is the U.S. government's official web portal to all federal, state and local government web resources and services.